sensor_id;sensor_type;location;lat;lon;timestamp;temperature;humidity
52799;DHT22;38667;42.872;74.622;2023-01-10T00:00:13;2.60;87.40
52799;DHT22;38667;42.872;74.622;2023-01-10T00:02:41;2.50;87.90
52799;DHT22;38667;42.872;74.622;2023-01-10T00:05:08;2.50;88.50
52799;DHT22;38667;42.872;74.622;2023-01-10T00:07:34;2.40;89.00
52799;DHT22;38667;42.872;74.622;2023-01-10T00:10:00;2.20;89.60
52799;DHT22;38667;42.872;74.622;2023-01-10T00:12:27;2.10;90.60
52799;DHT22;38667;42.872;74.622;2023-01-10T00:14:53;2.10;91.70
52799;DHT22;38667;42.872;74.622;2023-01-10T00:17:19;2.10;91.90
52799;DHT22;38667;42.872;74.622;2023-01-10T00:19:47;2.10;91.50
52799;DHT22;38667;42.872;74.622;2023-01-10T00:22:13;2.10;92.20
52799;DHT22;38667;42.872;74.622;2023-01-10T00:24:40;2.00;91.80
52799;DHT22;38667;42.872;74.622;2023-01-10T00:27:06;2.00;92.40
52799;DHT22;38667;42.872;74.622;2023-01-10T00:29:32;2.00;92.60
52799;DHT22;38667;42.872;74.622;2023-01-10T00:31:59;2.00;92.40
52799;DHT22;38667;42.872;74.622;2023-01-10T00:34:25;1.90;92.40
52799;DHT22;38667;42.872;74.622;2023-01-10T00:36:55;1.90;93.00
52799;DHT22;38667;42.872;74.622;2023-01-10T00:39:21;1.80;92.60
52799;DHT22;38667;42.872;74.622;2023-01-10T00:41:47;1.80;93.30
52799;DHT22;38667;42.872;74.622;2023-01-10T00:44:14;1.70;93.50
52799;DHT22;38667;42.872;74.622;2023-01-10T00:46:40;1.60;93.60
52799;DHT22;38667;42.872;74.622;2023-01-10T00:49:07;1.60;95.10
52799;DHT22;38667;42.872;74.622;2023-01-10T00:51:33;1.60;94.20
52799;DHT22;38667;42.872;74.622;2023-01-10T00:54:01;1.40;94.80
52799;DHT22;38667;42.872;74.622;2023-01-10T00:56:28;1.40;94.60
52799;DHT22;38667;42.872;74.622;2023-01-10T00:58:54;1.40;94.70
52799;DHT22;38667;42.872;74.622;2023-01-10T01:01:20;1.30;94.70
52799;DHT22;38667;42.872;74.622;2023-01-10T01:03:47;1.40;95.00
52799;DHT22;38667;42.872;74.622;2023-01-10T01:06:13;1.30;94.40
52799;DHT22;38667;42.872;74.622;2023-01-10T01:08:39;1.20;94.40
52799;DHT22;38667;42.872;74.622;2023-01-10T01:11:07;1.20;94.80
52799;DHT22;38667;42.872;74.622;2023-01-10T01:13:34;1.20;95.00
52799;DHT22;38667;42.872;74.622;2023-01-10T01:16:00;1.20;95.60
52799;DHT22;38667;42.872;74.622;2023-01-10T01:18:27;1.20;94.50
52799;DHT22;38667;42.872;74.622;2023-01-10T01:20:54;1.10;94.10
52799;DHT22;38667;42.872;74.622;2023-01-10T01:23:22;1.10;94.50
52799;DHT22;38667;42.872;74.622;2023-01-10T01:25:49;1.00;94.20
52799;DHT22;38667;42.872;74.622;2023-01-10T01:28:17;1.00;94.20
52799;DHT22;38667;42.872;74.622;2023-01-10T01:30:44;0.90;94.60
52799;DHT22;38667;42.872;74.622;2023-01-10T01:33:10;0.80;93.60
52799;DHT22;38667;42.872;74.622;2023-01-10T01:35:40;0.90;94.30
52799;DHT22;38667;42.872;74.622;2023-01-10T01:38:06;0.80;93.70
52799;DHT22;38667;42.872;74.622;2023-01-10T01:40:33;0.90;94.50
52799;DHT22;38667;42.872;74.622;2023-01-10T01:42:59;0.90;94.10
52799;DHT22;38667;42.872;74.622;2023-01-10T01:45:35;0.80;93.70
52799;DHT22;38667;42.872;74.622;2023-01-10T01:48:11;0.90;93.90
52799;DHT22;38667;42.872;74.622;2023-01-10T01:50:41;0.90;93.70
52799;DHT22;38667;42.872;74.622;2023-01-10T01:53:12;0.80;92.30
52799;DHT22;38667;42.872;74.622;2023-01-10T01:55:39;0.70;92.60
52799;DHT22;38667;42.872;74.622;2023-01-10T01:58:08;0.70;92.70
52799;DHT22;38667;42.872;74.622;2023-01-10T02:00:38;0.70;93.80
52799;DHT22;38667;42.872;74.622;2023-01-10T02:03:05;0.70;92.80
52799;DHT22;38667;42.872;74.622;2023-01-10T02:05:33;0.60;92.90
52799;DHT22;38667;42.872;74.622;2023-01-10T02:08:01;0.70;93.30
52799;DHT22;38667;42.872;74.622;2023-01-10T02:10:35;0.70;92.50
52799;DHT22;38667;42.872;74.622;2023-01-10T02:13:05;0.60;91.60
52799;DHT22;38667;42.872;74.622;2023-01-10T02:15:31;0.70;92.30
52799;DHT22;38667;42.872;74.622;2023-01-10T02:18:01;0.50;89.90
52799;DHT22;38667;42.872;74.622;2023-01-10T02:20:30;0.40;90.60
52799;DHT22;38667;42.872;74.622;2023-01-10T02:32:46;0.40;92.10
52799;DHT22;38667;42.872;74.622;2023-01-10T02:35:27;0.30;92.50
52799;DHT22;38667;42.872;74.622;2023-01-10T02:38:01;0.40;92.40
52799;DHT22;38667;42.872;74.622;2023-01-10T02:40:36;0.40;92.10
52799;DHT22;38667;42.872;74.622;2023-01-10T02:43:08;0.40;92.80
52799;DHT22;38667;42.872;74.622;2023-01-10T02:45:39;0.40;91.10
52799;DHT22;38667;42.872;74.622;2023-01-10T02:48:08;0.30;90.10
52799;DHT22;38667;42.872;74.622;2023-01-10T02:50:53;0.40;91.90
52799;DHT22;38667;42.872;74.622;2023-01-10T02:53:23;0.50;91.00
52799;DHT22;38667;42.872;74.622;2023-01-10T02:56:31;0.60;90.80
52799;DHT22;38667;42.872;74.622;2023-01-10T02:59:22;0.50;89.00
52799;DHT22;38667;42.872;74.622;2023-01-10T03:01:54;0.60;88.60
52799;DHT22;38667;42.872;74.622;2023-01-10T03:04:33;0.50;88.00
52799;DHT22;38667;42.872;74.622;2023-01-10T03:07:10;0.60;89.20
52799;DHT22;38667;42.872;74.622;2023-01-10T03:09:47;0.60;88.30
52799;DHT22;38667;42.872;74.622;2023-01-10T03:12:20;0.60;89.30
52799;DHT22;38667;42.872;74.622;2023-01-10T03:14:47;0.60;88.70
52799;DHT22;38667;42.872;74.622;2023-01-10T03:17:15;0.50;88.20
52799;DHT22;38667;42.872;74.622;2023-01-10T03:19:46;0.50;87.80
52799;DHT22;38667;42.872;74.622;2023-01-10T03:22:14;0.50;88.10
52799;DHT22;38667;42.872;74.622;2023-01-10T03:24:45;0.50;88.70
52799;DHT22;38667;42.872;74.622;2023-01-10T03:27:18;0.50;88.90
52799;DHT22;38667;42.872;74.622;2023-01-10T03:29:49;0.60;90.60
52799;DHT22;38667;42.872;74.622;2023-01-10T03:32:21;0.60;90.60
52799;DHT22;38667;42.872;74.622;2023-01-10T03:34:55;0.60;89.50
52799;DHT22;38667;42.872;74.622;2023-01-10T03:37:28;0.50;88.80
52799;DHT22;38667;42.872;74.622;2023-01-10T03:40:00;0.40;89.00
52799;DHT22;38667;42.872;74.622;2023-01-10T03:42:34;0.50;90.30
52799;DHT22;38667;42.872;74.622;2023-01-10T03:45:07;0.50;89.80
52799;DHT22;38667;42.872;74.622;2023-01-10T03:47:39;0.50;90.90
52799;DHT22;38667;42.872;74.622;2023-01-10T03:50:11;0.50;90.00
52799;DHT22;38667;42.872;74.622;2023-01-10T03:52:40;0.40;90.30
52799;DHT22;38667;42.872;74.622;2023-01-10T03:55:10;0.50;91.40
52799;DHT22;38667;42.872;74.622;2023-01-10T03:57:40;0.60;91.20
52799;DHT22;38667;42.872;74.622;2023-01-10T04:00:07;0.60;89.80
52799;DHT22;38667;42.872;74.622;2023-01-10T04:02:34;0.60;88.50
52799;DHT22;38667;42.872;74.622;2023-01-10T04:05:01;0.50;88.60
52799;DHT22;38667;42.872;74.622;2023-01-10T04:07:28;0.40;87.50
52799;DHT22;38667;42.872;74.622;2023-01-10T04:09:57;0.20;87.00
52799;DHT22;38667;42.872;74.622;2023-01-10T04:12:24;0.00;88.00
52799;DHT22;38667;42.872;74.622;2023-01-10T04:14:50;-0.10;89.20
52799;DHT22;38667;42.872;74.622;2023-01-10T04:17:17;-0.10;90.20
52799;DHT22;38667;42.872;74.622;2023-01-10T04:19:43;-0.10;89.90
52799;DHT22;38667;42.872;74.622;2023-01-10T04:22:10;0.00;90.50
52799;DHT22;38667;42.872;74.622;2023-01-10T04:24:38;0.00;89.20
52799;DHT22;38667;42.872;74.622;2023-01-10T04:27:05;-0.10;89.00
52799;DHT22;38667;42.872;74.622;2023-01-10T04:29:31;-0.10;88.70
52799;DHT22;38667;42.872;74.622;2023-01-10T04:31:58;-0.10;88.80
52799;DHT22;38667;42.872;74.622;2023-01-10T04:34:24;-0.20;87.90
52799;DHT22;38667;42.872;74.622;2023-01-10T04:36:50;-0.30;88.40
52799;DHT22;38667;42.872;74.622;2023-01-10T04:39:17;-0.30;88.90
52799;DHT22;38667;42.872;74.622;2023-01-10T04:41:44;-0.30;89.90
52799;DHT22;38667;42.872;74.622;2023-01-10T04:44:11;-0.30;88.80
52799;DHT22;38667;42.872;74.622;2023-01-10T04:46:40;-0.40;88.00
52799;DHT22;38667;42.872;74.622;2023-01-10T04:49:08;-0.50;88.70
52799;DHT22;38667;42.872;74.622;2023-01-10T04:51:34;-0.50;88.80
52799;DHT22;38667;42.872;74.622;2023-01-10T04:54:01;-0.50;88.80
52799;DHT22;38667;42.872;74.622;2023-01-10T04:56:27;-0.60;89.30
52799;DHT22;38667;42.872;74.622;2023-01-10T04:58:55;-0.60;88.70
52799;DHT22;38667;42.872;74.622;2023-01-10T05:01:23;-0.70;88.50
52799;DHT22;38667;42.872;74.622;2023-01-10T05:03:50;-0.80;88.40
52799;DHT22;38667;42.872;74.622;2023-01-10T05:06:17;-0.80;89.40
52799;DHT22;38667;42.872;74.622;2023-01-10T05:08:44;-0.90;89.30
52799;DHT22;38667;42.872;74.622;2023-01-10T05:11:10;-0.90;89.90
52799;DHT22;38667;42.872;74.622;2023-01-10T05:13:37;-0.80;89.40
52799;DHT22;38667;42.872;74.622;2023-01-10T05:16:05;-0.90;88.70
52799;DHT22;38667;42.872;74.622;2023-01-10T05:18:32;-0.90;88.00
52799;DHT22;38667;42.872;74.622;2023-01-10T05:21:01;-1.00;87.10
52799;DHT22;38667;42.872;74.622;2023-01-10T05:23:28;-1.00;88.30
52799;DHT22;38667;42.872;74.622;2023-01-10T05:25:54;-1.00;88.10
52799;DHT22;38667;42.872;74.622;2023-01-10T05:28:21;-1.00;88.10
52799;DHT22;38667;42.872;74.622;2023-01-10T05:30:47;-1.00;88.40
52799;DHT22;38667;42.872;74.622;2023-01-10T05:33:16;-1.00;88.00
52799;DHT22;38667;42.872;74.622;2023-01-10T05:35:42;-1.00;87.80
52799;DHT22;38667;42.872;74.622;2023-01-10T05:38:09;-1.00;86.80
52799;DHT22;38667;42.872;74.622;2023-01-10T05:40:35;-1.00;87.20
52799;DHT22;38667;42.872;74.622;2023-01-10T05:43:01;-1.10;86.40
52799;DHT22;38667;42.872;74.622;2023-01-10T05:45:28;-1.10;87.30
52799;DHT22;38667;42.872;74.622;2023-01-10T05:47:54;-1.10;87.70
52799;DHT22;38667;42.872;74.622;2023-01-10T05:50:22;-1.00;87.90
52799;DHT22;38667;42.872;74.622;2023-01-10T05:52:48;-1.10;85.90
52799;DHT22;38667;42.872;74.622;2023-01-10T05:55:15;-1.10;86.20
52799;DHT22;38667;42.872;74.622;2023-01-10T05:57:41;-1.10;85.60
52799;DHT22;38667;42.872;74.622;2023-01-10T06:00:08;-1.20;85.00
52799;DHT22;38667;42.872;74.622;2023-01-10T06:02:35;-1.20;85.10
52799;DHT22;38667;42.872;74.622;2023-01-10T06:05:05;-1.20;85.70
52799;DHT22;38667;42.872;74.622;2023-01-10T06:07:33;-1.30;85.10
52799;DHT22;38667;42.872;74.622;2023-01-10T06:09:59;-1.30;85.60
52799;DHT22;38667;42.872;74.622;2023-01-10T06:12:25;-1.40;86.40
52799;DHT22;38667;42.872;74.622;2023-01-10T06:14:52;-1.40;86.20
52799;DHT22;38667;42.872;74.622;2023-01-10T06:17:18;-1.30;86.40
52799;DHT22;38667;42.872;74.622;2023-01-10T06:19:44;-1.30;86.40
52799;DHT22;38667;42.872;74.622;2023-01-10T06:22:11;-1.30;86.30
52799;DHT22;38667;42.872;74.622;2023-01-10T06:24:39;-1.30;86.70
52799;DHT22;38667;42.872;74.622;2023-01-10T06:27:05;-1.30;86.20
52799;DHT22;38667;42.872;74.622;2023-01-10T06:29:32;-1.30;87.00
52799;DHT22;38667;42.872;74.622;2023-01-10T06:31:58;-1.30;86.90
52799;DHT22;38667;42.872;74.622;2023-01-10T06:34:24;-1.30;87.30
52799;DHT22;38667;42.872;74.622;2023-01-10T06:36:51;-1.30;86.30
52799;DHT22;38667;42.872;74.622;2023-01-10T06:39:17;-1.30;86.70
52799;DHT22;38667;42.872;74.622;2023-01-10T06:41:45;-1.30;86.00
52799;DHT22;38667;42.872;74.622;2023-01-10T06:44:11;-1.40;86.50
52799;DHT22;38667;42.872;74.622;2023-01-10T06:46:38;-1.50;86.90
52799;DHT22;38667;42.872;74.622;2023-01-10T06:49:04;-1.60;86.50
52799;DHT22;38667;42.872;74.622;2023-01-10T06:51:30;-1.60;86.40
52799;DHT22;38667;42.872;74.622;2023-01-10T06:53:57;-1.70;86.70
52799;DHT22;38667;42.872;74.622;2023-01-10T06:56:23;-1.70;87.60
52799;DHT22;38667;42.872;74.622;2023-01-10T06:58:51;-1.70;87.60
52799;DHT22;38667;42.872;74.622;2023-01-10T07:01:20;-1.80;87.30
52799;DHT22;38667;42.872;74.622;2023-01-10T07:03:46;-1.70;88.30
52799;DHT22;38667;42.872;74.622;2023-01-10T07:06:13;-1.70;87.20
52799;DHT22;38667;42.872;74.622;2023-01-10T07:08:40;-1.70;86.60
52799;DHT22;38667;42.872;74.622;2023-01-10T07:11:08;-1.80;85.80
52799;DHT22;38667;42.872;74.622;2023-01-10T07:13:35;-1.80;86.60
52799;DHT22;38667;42.872;74.622;2023-01-10T07:16:04;-1.70;87.40
52799;DHT22;38667;42.872;74.622;2023-01-10T07:18:32;-1.70;85.90
52799;DHT22;38667;42.872;74.622;2023-01-10T07:20:58;-1.80;84.50
52799;DHT22;38667;42.872;74.622;2023-01-10T07:23:25;-1.90;84.60
52799;DHT22;38667;42.872;74.622;2023-01-10T07:25:53;-1.90;86.80
52799;DHT22;38667;42.872;74.622;2023-01-10T07:28:19;-2.00;85.90
52799;DHT22;38667;42.872;74.622;2023-01-10T07:30:46;-2.00;86.50
52799;DHT22;38667;42.872;74.622;2023-01-10T07:33:14;-2.00;86.20
52799;DHT22;38667;42.872;74.622;2023-01-10T07:35:40;-2.00;86.20
52799;DHT22;38667;42.872;74.622;2023-01-10T07:38:06;-1.90;86.90
52799;DHT22;38667;42.872;74.622;2023-01-10T07:40:34;-1.80;86.40
52799;DHT22;38667;42.872;74.622;2023-01-10T07:43:01;-1.80;86.90
52799;DHT22;38667;42.872;74.622;2023-01-10T07:45:28;-1.80;87.20
52799;DHT22;38667;42.872;74.622;2023-01-10T07:47:56;-1.80;87.40
52799;DHT22;38667;42.872;74.622;2023-01-10T07:50:24;-1.80;86.80
52799;DHT22;38667;42.872;74.622;2023-01-10T07:52:50;-1.70;87.00
52799;DHT22;38667;42.872;74.622;2023-01-10T07:55:16;-1.80;85.60
52799;DHT22;38667;42.872;74.622;2023-01-10T07:57:43;-1.90;86.40
52799;DHT22;38667;42.872;74.622;2023-01-10T08:00:11;-1.80;87.50
52799;DHT22;38667;42.872;74.622;2023-01-10T08:02:37;-1.80;85.90
52799;DHT22;38667;42.872;74.622;2023-01-10T08:05:04;-1.80;85.40
52799;DHT22;38667;42.872;74.622;2023-01-10T08:07:32;-1.80;84.90
52799;DHT22;38667;42.872;74.622;2023-01-10T08:09:58;-1.70;85.60
52799;DHT22;38667;42.872;74.622;2023-01-10T08:12:25;-1.70;84.20
52799;DHT22;38667;42.872;74.622;2023-01-10T08:14:51;-1.70;83.70
52799;DHT22;38667;42.872;74.622;2023-01-10T08:17:18;-1.60;83.70
52799;DHT22;38667;42.872;74.622;2023-01-10T08:19:44;-1.50;84.60
52799;DHT22;38667;42.872;74.622;2023-01-10T08:22:10;-1.50;83.60
52799;DHT22;38667;42.872;74.622;2023-01-10T08:24:38;-1.40;84.10
52799;DHT22;38667;42.872;74.622;2023-01-10T08:27:05;-1.40;83.70
52799;DHT22;38667;42.872;74.622;2023-01-10T08:29:31;-1.50;82.70
52799;DHT22;38667;42.872;74.622;2023-01-10T08:31:57;-1.40;82.60
52799;DHT22;38667;42.872;74.622;2023-01-10T08:34:24;-1.50;81.90
52799;DHT22;38667;42.872;74.622;2023-01-10T08:36:51;-1.50;83.20
52799;DHT22;38667;42.872;74.622;2023-01-10T08:39:18;-1.50;82.60
52799;DHT22;38667;42.872;74.622;2023-01-10T08:41:46;-1.40;83.10
52799;DHT22;38667;42.872;74.622;2023-01-10T08:44:13;-1.30;82.40
52799;DHT22;38667;42.872;74.622;2023-01-10T08:46:39;-1.30;81.70
52799;DHT22;38667;42.872;74.622;2023-01-10T08:49:06;-1.40;80.40
52799;DHT22;38667;42.872;74.622;2023-01-10T08:51:32;-1.40;80.60
52799;DHT22;38667;42.872;74.622;2023-01-10T08:53:59;-1.50;80.90
52799;DHT22;38667;42.872;74.622;2023-01-10T08:56:25;-1.60;80.40
52799;DHT22;38667;42.872;74.622;2023-01-10T08:58:53;-1.70;81.40
52799;DHT22;38667;42.872;74.622;2023-01-10T09:01:20;-1.60;83.30
52799;DHT22;38667;42.872;74.622;2023-01-10T09:03:47;-1.40;83.30
52799;DHT22;38667;42.872;74.622;2023-01-10T09:06:13;-1.30;83.20
52799;DHT22;38667;42.872;74.622;2023-01-10T09:08:39;-1.40;80.80
52799;DHT22;38667;42.872;74.622;2023-01-10T09:11:06;-1.50;82.10
52799;DHT22;38667;42.872;74.622;2023-01-10T09:13:33;-1.60;82.80
52799;DHT22;38667;42.872;74.622;2023-01-10T09:16:01;-1.70;82.30
52799;DHT22;38667;42.872;74.622;2023-01-10T09:18:28;-1.70;82.60
52799;DHT22;38667;42.872;74.622;2023-01-10T09:20:54;-1.70;81.50
52799;DHT22;38667;42.872;74.622;2023-01-10T09:23:21;-1.60;81.70
52799;DHT22;38667;42.872;74.622;2023-01-10T09:25:49;-1.60;81.10
52799;DHT22;38667;42.872;74.622;2023-01-10T09:28:16;-1.80;80.90
52799;DHT22;38667;42.872;74.622;2023-01-10T09:30:42;-1.80;82.60
52799;DHT22;38667;42.872;74.622;2023-01-10T09:33:10;-1.80;83.20
52799;DHT22;38667;42.872;74.622;2023-01-10T09:35:38;-1.70;84.70
52799;DHT22;38667;42.872;74.622;2023-01-10T09:38:06;-1.70;83.40
52799;DHT22;38667;42.872;74.622;2023-01-10T09:40:42;-1.70;82.40
52799;DHT22;38667;42.872;74.622;2023-01-10T09:43:18;-1.90;80.90
52799;DHT22;38667;42.872;74.622;2023-01-10T09:45:52;-2.00;82.00
52799;DHT22;38667;42.872;74.622;2023-01-10T09:48:27;-2.10;82.00
52799;DHT22;38667;42.872;74.622;2023-01-10T09:51:08;-2.10;82.10
52799;DHT22;38667;42.872;74.622;2023-01-10T09:53:40;-2.20;81.70
52799;DHT22;38667;42.872;74.622;2023-01-10T09:56:08;-2.20;81.70
52799;DHT22;38667;42.872;74.622;2023-01-10T09:58:36;-2.30;82.90
52799;DHT22;38667;42.872;74.622;2023-01-10T10:01:06;-2.30;83.00
52799;DHT22;38667;42.872;74.622;2023-01-10T10:03:37;-2.40;82.40
52799;DHT22;38667;42.872;74.622;2023-01-10T10:06:09;-2.40;83.80
52799;DHT22;38667;42.872;74.622;2023-01-10T10:08:36;-2.60;82.00
52799;DHT22;38667;42.872;74.622;2023-01-10T10:11:16;-2.70;83.20
52799;DHT22;38667;42.872;74.622;2023-01-10T10:13:51;-2.80;83.70
52799;DHT22;38667;42.872;74.622;2023-01-10T10:16:28;-2.90;83.60
52799;DHT22;38667;42.872;74.622;2023-01-10T10:19:04;-2.80;86.00
52799;DHT22;38667;42.872;74.622;2023-01-10T10:21:42;-2.80;84.30
52799;DHT22;38667;42.872;74.622;2023-01-10T10:24:21;-2.80;84.00
52799;DHT22;38667;42.872;74.622;2023-01-10T10:26:56;-2.90;83.90
52799;DHT22;38667;42.872;74.622;2023-01-10T10:29:46;-3.00;84.20
52799;DHT22;38667;42.872;74.622;2023-01-10T10:32:34;-3.00;83.90
52799;DHT22;38667;42.872;74.622;2023-01-10T10:35:10;-3.10;83.30
52799;DHT22;38667;42.872;74.622;2023-01-10T10:37:41;-3.20;84.20
52799;DHT22;38667;42.872;74.622;2023-01-10T10:40:16;-3.30;85.00
52799;DHT22;38667;42.872;74.622;2023-01-10T10:42:47;-3.30;86.00
52799;DHT22;38667;42.872;74.622;2023-01-10T10:45:18;-3.30;86.10
52799;DHT22;38667;42.872;74.622;2023-01-10T10:47:49;-3.30;85.70
52799;DHT22;38667;42.872;74.622;2023-01-10T10:50:24;-3.40;85.40
52799;DHT22;38667;42.872;74.622;2023-01-10T10:52:53;-3.40;85.50
52799;DHT22;38667;42.872;74.622;2023-01-10T10:55:24;-3.50;85.70
52799;DHT22;38667;42.872;74.622;2023-01-10T10:57:53;-3.40;86.20
52799;DHT22;38667;42.872;74.622;2023-01-10T11:00:21;-3.40;86.00
52799;DHT22;38667;42.872;74.622;2023-01-10T11:02:50;-3.40;85.40
52799;DHT22;38667;42.872;74.622;2023-01-10T11:05:21;-3.50;85.40
52799;DHT22;38667;42.872;74.622;2023-01-10T11:07:49;-3.60;83.90
52799;DHT22;38667;42.872;74.622;2023-01-10T11:10:21;-3.70;84.30
52799;DHT22;38667;42.872;74.622;2023-01-10T11:12:49;-3.70;84.80
52799;DHT22;38667;42.872;74.622;2023-01-10T11:15:35;-3.70;86.00
52799;DHT22;38667;42.872;74.622;2023-01-10T11:18:04;-3.60;85.80
52799;DHT22;38667;42.872;74.622;2023-01-10T11:20:33;-3.70;85.10
52799;DHT22;38667;42.872;74.622;2023-01-10T11:22:59;-3.70;85.00
52799;DHT22;38667;42.872;74.622;2023-01-10T11:25:26;-3.80;84.80
52799;DHT22;38667;42.872;74.622;2023-01-10T11:27:54;-3.80;85.80
52799;DHT22;38667;42.872;74.622;2023-01-10T11:30:23;-3.80;86.40
52799;DHT22;38667;42.872;74.622;2023-01-10T11:32:52;-3.80;86.20
52799;DHT22;38667;42.872;74.622;2023-01-10T11:35:22;-3.80;85.30
52799;DHT22;38667;42.872;74.622;2023-01-10T11:38:00;-3.80;84.70
52799;DHT22;38667;42.872;74.622;2023-01-10T11:40:28;-3.90;84.50
52799;DHT22;38667;42.872;74.622;2023-01-10T11:42:55;-3.90;84.50
52799;DHT22;38667;42.872;74.622;2023-01-10T11:45:30;-4.00;84.00
52799;DHT22;38667;42.872;74.622;2023-01-10T11:48:02;-4.00;84.50
52799;DHT22;38667;42.872;74.622;2023-01-10T11:50:33;-4.10;83.60
52799;DHT22;38667;42.872;74.622;2023-01-10T11:53:01;-4.10;83.90
52799;DHT22;38667;42.872;74.622;2023-01-10T11:55:31;-4.00;84.10
52799;DHT22;38667;42.872;74.622;2023-01-10T11:58:02;-4.00;84.50
52799;DHT22;38667;42.872;74.622;2023-01-10T12:00:38;-4.00;85.10
52799;DHT22;38667;42.872;74.622;2023-01-10T12:03:16;-4.00;83.80
52799;DHT22;38667;42.872;74.622;2023-01-10T12:05:52;-3.90;84.20
52799;DHT22;38667;42.872;74.622;2023-01-10T12:08:27;-3.90;83.60
52799;DHT22;38667;42.872;74.622;2023-01-10T12:10:59;-3.90;83.70
52799;DHT22;38667;42.872;74.622;2023-01-10T12:13:27;-4.00;82.10
52799;DHT22;38667;42.872;74.622;2023-01-10T12:16:14;-4.10;81.90
52799;DHT22;38667;42.872;74.622;2023-01-10T12:18:41;-4.20;82.30
52799;DHT22;38667;42.872;74.622;2023-01-10T12:21:08;-4.30;82.50
52799;DHT22;38667;42.872;74.622;2023-01-10T12:23:37;-4.40;83.00
52799;DHT22;38667;42.872;74.622;2023-01-10T12:26:06;-4.40;84.40
52799;DHT22;38667;42.872;74.622;2023-01-10T12:28:34;-4.40;84.40
52799;DHT22;38667;42.872;74.622;2023-01-10T12:31:02;-4.40;84.20
52799;DHT22;38667;42.872;74.622;2023-01-10T12:33:33;-4.40;83.50
52799;DHT22;38667;42.872;74.622;2023-01-10T12:38:56;-4.50;83.30
52799;DHT22;38667;42.872;74.622;2023-01-10T12:41:27;-4.50;83.70
52799;DHT22;38667;42.872;74.622;2023-01-10T12:43:56;-4.40;85.10
52799;DHT22;38667;42.872;74.622;2023-01-10T12:46:26;-4.40;84.60
52799;DHT22;38667;42.872;74.622;2023-01-10T12:48:56;-4.30;84.30
52799;DHT22;38667;42.872;74.622;2023-01-10T12:51:27;-4.40;83.40
52799;DHT22;38667;42.872;74.622;2023-01-10T12:54:00;-4.40;82.90
52799;DHT22;38667;42.872;74.622;2023-01-10T12:56:31;-4.50;82.90
52799;DHT22;38667;42.872;74.622;2023-01-10T12:59:00;-4.50;83.60
52799;DHT22;38667;42.872;74.622;2023-01-10T13:01:30;-4.40;84.20
52799;DHT22;38667;42.872;74.622;2023-01-10T13:03:58;-4.40;84.80
52799;DHT22;38667;42.872;74.622;2023-01-10T13:06:30;-4.30;83.20
52799;DHT22;38667;42.872;74.622;2023-01-10T13:08:59;-4.40;82.30
52799;DHT22;38667;42.872;74.622;2023-01-10T13:11:32;-4.40;81.90
52799;DHT22;38667;42.872;74.622;2023-01-10T13:14:02;-4.40;83.10
52799;DHT22;38667;42.872;74.622;2023-01-10T13:16:39;-4.40;82.20
52799;DHT22;38667;42.872;74.622;2023-01-10T13:19:23;-4.50;82.30
52799;DHT22;38667;42.872;74.622;2023-01-10T13:21:51;-4.50;83.10
52799;DHT22;38667;42.872;74.622;2023-01-10T13:24:38;-4.50;80.80
52799;DHT22;38667;42.872;74.622;2023-01-10T13:27:05;-4.50;82.00
52799;DHT22;38667;42.872;74.622;2023-01-10T13:29:38;-4.50;82.00
52799;DHT22;38667;42.872;74.622;2023-01-10T13:32:22;-4.50;80.10
52799;DHT22;38667;42.872;74.622;2023-01-10T13:34:50;-4.70;80.30
52799;DHT22;38667;42.872;74.622;2023-01-10T13:37:21;-4.70;81.30
52799;DHT22;38667;42.872;74.622;2023-01-10T13:39:53;-4.70;80.60
52799;DHT22;38667;42.872;74.622;2023-01-10T13:42:29;-4.60;81.20
52799;DHT22;38667;42.872;74.622;2023-01-10T13:45:22;-4.60;81.30
52799;DHT22;38667;42.872;74.622;2023-01-10T13:51:04;-4.60;81.30
52799;DHT22;38667;42.872;74.622;2023-01-10T13:53:50;-4.60;80.70
52799;DHT22;38667;42.872;74.622;2023-01-10T13:56:38;-4.60;81.20
52799;DHT22;38667;42.872;74.622;2023-01-10T13:59:11;-4.70;80.30
52799;DHT22;38667;42.872;74.622;2023-01-10T14:01:38;-4.60;80.90
52799;DHT22;38667;42.872;74.622;2023-01-10T14:04:06;-4.60;80.00
52799;DHT22;38667;42.872;74.622;2023-01-10T14:06:37;-4.70;78.80
52799;DHT22;38667;42.872;74.622;2023-01-10T14:11:51;-4.70;79.30
52799;DHT22;38667;42.872;74.622;2023-01-10T14:14:20;-4.70;80.50
52799;DHT22;38667;42.872;74.622;2023-01-10T14:16:49;-4.60;80.70
52799;DHT22;38667;42.872;74.622;2023-01-10T14:19:23;-4.60;80.20
52799;DHT22;38667;42.872;74.622;2023-01-10T14:21:54;-4.60;78.60
52799;DHT22;38667;42.872;74.622;2023-01-10T14:24:24;-4.80;77.40
52799;DHT22;38667;42.872;74.622;2023-01-10T14:26:54;-4.80;78.50
52799;DHT22;38667;42.872;74.622;2023-01-10T14:29:21;-4.90;78.70
52799;DHT22;38667;42.872;74.622;2023-01-10T14:31:49;-4.80;79.50
52799;DHT22;38667;42.872;74.622;2023-01-10T14:34:20;-4.80;79.50
52799;DHT22;38667;42.872;74.622;2023-01-10T14:36:54;-4.80;78.80
52799;DHT22;38667;42.872;74.622;2023-01-10T14:39:25;-4.80;78.90
52799;DHT22;38667;42.872;74.622;2023-01-10T14:41:57;-4.80;78.90
52799;DHT22;38667;42.872;74.622;2023-01-10T14:44:31;-4.80;79.10
52799;DHT22;38667;42.872;74.622;2023-01-10T14:47:00;-4.80;79.80
52799;DHT22;38667;42.872;74.622;2023-01-10T14:49:34;-4.70;80.00
52799;DHT22;38667;42.872;74.622;2023-01-10T14:52:12;-4.70;79.90
52799;DHT22;38667;42.872;74.622;2023-01-10T14:54:44;-4.60;79.00
52799;DHT22;38667;42.872;74.622;2023-01-10T14:57:19;-4.60;79.70
52799;DHT22;38667;42.872;74.622;2023-01-10T14:59:46;-4.60;79.60
52799;DHT22;38667;42.872;74.622;2023-01-10T15:02:16;-4.60;79.80
52799;DHT22;38667;42.872;74.622;2023-01-10T15:04:50;-4.70;78.20
52799;DHT22;38667;42.872;74.622;2023-01-10T15:07:17;-4.80;77.70
52799;DHT22;38667;42.872;74.622;2023-01-10T15:09:47;-4.80;78.70
52799;DHT22;38667;42.872;74.622;2023-01-10T15:12:17;-4.90;78.90
52799;DHT22;38667;42.872;74.622;2023-01-10T15:14:46;-4.90;79.00
52799;DHT22;38667;42.872;74.622;2023-01-10T15:17:17;-4.90;79.90
52799;DHT22;38667;42.872;74.622;2023-01-10T15:19:48;-4.80;79.50
52799;DHT22;38667;42.872;74.622;2023-01-10T15:22:19;-4.80;78.20
52799;DHT22;38667;42.872;74.622;2023-01-10T15:25:00;-4.80;77.60
52799;DHT22;38667;42.872;74.622;2023-01-10T15:27:29;-4.90;77.80
52799;DHT22;38667;42.872;74.622;2023-01-10T15:29:57;-5.00;78.00
52799;DHT22;38667;42.872;74.622;2023-01-10T15:32:26;-5.00;79.20
52799;DHT22;38667;42.872;74.622;2023-01-10T15:34:54;-4.90;79.30
52799;DHT22;38667;42.872;74.622;2023-01-10T15:37:24;-4.90;79.30
52799;DHT22;38667;42.872;74.622;2023-01-10T15:39:52;-4.90;82.00
52799;DHT22;38667;42.872;74.622;2023-01-10T15:42:21;-4.80;81.10
52799;DHT22;38667;42.872;74.622;2023-01-10T15:44:50;-4.70;81.00
52799;DHT22;38667;42.872;74.622;2023-01-10T15:47:49;-4.70;80.50
52799;DHT22;38667;42.872;74.622;2023-01-10T15:50:21;-4.80;78.90
52799;DHT22;38667;42.872;74.622;2023-01-10T15:52:48;-4.70;80.00